Time;durP1;ratioP1;P1;durP2;ratioP2;P2;SDS_P1;SDS_P2;PMS_P1;PMS_P2;Temp;Humidity;BMP_temperature;BMP_pressure;BME280_temperature;BME280_humidity;BME280_pressure;Samples;Min_cycle;Max_cycle;Signal;HPM_P1;HPM_P2
2022/01/19 00:01:05;;;;;;;10.93;8.33;;;7.50;99.60;;;;;;5075988;28;20448;-70
2022/01/19 00:03:32;;;;;;;9.33;6.93;;;7.40;99.60;;;;;;5075766;28;20433;-70
2022/01/19 00:05:59;;;;;;;10.73;7.53;;;7.40;99.50;;;;;;5075502;28;20476;-70
2022/01/19 00:08:28;;;;;;;8.97;7.20;;;7.40;99.50;;;;;;5075460;28;20515;-70
2022/01/19 00:10:54;;;;;;;11.37;7.20;;;7.40;99.40;;;;;;5075761;28;20539;-70
2022/01/19 00:13:21;;;;;;;10.80;8.00;;;7.40;99.30;;;;;;5075818;28;20448;-70
2022/01/19 00:15:49;;;;;;;13.87;7.60;;;7.30;99.30;;;;;;5075519;28;20464;-70
2022/01/19 00:18:19;;;;;;;9.43;7.60;;;7.30;99.30;;;;;;5075209;28;20444;-70
2022/01/19 00:20:47;;;;;;;15.03;6.90;;;7.30;99.10;;;;;;5075402;28;20422;-70
2022/01/19 00:23:15;;;;;;;10.00;7.80;;;7.30;99.00;;;;;;5075163;28;20448;-70
2022/01/19 00:25:43;;;;;;;10.53;6.83;;;7.20;98.80;;;;;;5075020;28;20491;-70
2022/01/19 00:28:10;;;;;;;8.90;6.93;;;7.20;98.90;;;;;;5074997;28;20452;-70
2022/01/19 00:30:37;;;;;;;8.27;6.40;;;7.10;98.90;;;;;;5074700;28;20436;-70
2022/01/19 00:33:04;;;;;;;10.23;7.77;;;7.10;98.90;;;;;;5074942;28;20811;-70
2022/01/19 00:35:35;;;;;;;7.00;6.30;;;7.00;98.80;;;;;;5074859;28;20464;-70
2022/01/19 00:38:02;;;;;;;7.03;6.33;;;6.90;98.90;;;;;;5074877;28;20777;-70
2022/01/19 00:40:29;;;;;;;10.33;7.50;;;6.90;98.90;;;;;;5074706;28;20503;-70
2022/01/19 00:42:56;;;;;;;6.50;5.80;;;6.90;99.20;;;;;;5074393;28;20926;-70
2022/01/19 00:45:23;;;;;;;8.53;6.40;;;6.90;99.00;;;;;;5074568;28;20831;-70
2022/01/19 00:47:49;;;;;;;10.73;7.40;;;6.90;99.10;;;;;;5074590;28;20445;-70
2022/01/19 00:50:19;;;;;;;9.70;6.93;;;6.80;99.00;;;;;;5073739;28;20456;-70
2022/01/19 00:52:49;;;;;;;8.00;6.50;;;6.70;99.00;;;;;;5074262;28;20432;-70
2022/01/19 00:55:15;;;;;;;8.17;6.63;;;6.70;99.10;;;;;;5074434;28;20472;-70
2022/01/19 00:57:42;;;;;;;10.30;6.83;;;6.70;99.20;;;;;;5074143;28;20535;-70
2022/01/19 01:00:12;;;;;;;7.30;6.17;;;6.70;99.20;;;;;;5074359;28;20476;-70
2022/01/19 01:02:39;;;;;;;7.67;6.87;;;6.60;99.20;;;;;;5074409;28;20448;-70
2022/01/19 01:05:06;;;;;;;10.10;6.53;;;6.60;99.30;;;;;;5075004;28;20468;-70
2022/01/19 01:07:35;;;;;;;8.80;6.80;;;6.60;99.40;;;;;;5074136;28;20961;-70
2022/01/19 01:10:04;;;;;;;8.37;6.47;;;6.60;99.70;;;;;;5073937;28;20927;-70
2022/01/19 01:12:43;;;;;;;7.20;5.77;;;6.60;99.90;;;;;;5073938;28;20819;-69
2022/01/19 01:15:36;;;;;;;6.67;6.03;;;6.60;99.90;;;;;;5073911;28;21000;-69
2022/01/19 01:18:20;;;;;;;8.90;7.27;;;6.70;99.90;;;;;;5074698;28;20502;-70
2022/01/19 01:20:50;;;;;;;9.03;6.47;;;6.70;99.90;;;;;;5074088;28;20469;-70
2022/01/19 01:23:18;;;;;;;8.73;6.60;;;6.70;99.90;;;;;;5074240;28;20436;-70
2022/01/19 01:25:46;;;;;;;9.40;6.93;;;6.70;99.90;;;;;;5073915;28;20468;-69
2022/01/19 01:28:13;;;;;;;17.70;11.93;;;6.70;99.90;;;;;;5073963;28;20441;-69
2022/01/19 01:30:41;;;;;;;22.73;16.37;;;6.70;99.90;;;;;;5074039;28;20535;-69
2022/01/19 01:33:09;;;;;;;21.00;14.53;;;6.70;99.90;;;;;;5073721;28;20433;-68
2022/01/19 01:35:36;;;;;;;34.53;23.13;;;6.70;99.90;;;;;;5073475;28;20461;-67
2022/01/19 01:38:04;;;;;;;39.00;24.77;;;6.70;99.90;;;;;;5073795;28;20444;-67
2022/01/19 01:40:33;;;;;;;48.50;28.10;;;6.70;99.90;;;;;;5073820;28;20480;-68
2022/01/19 01:43:03;;;;;;;40.37;23.67;;;6.70;99.90;;;;;;5073744;28;20444;-68
2022/01/19 01:45:33;;;;;;;24.50;17.07;;;6.70;99.90;;;;;;5073671;28;20472;-68
2022/01/19 01:48:08;;;;;;;20.10;14.93;;;6.70;99.80;;;;;;5073659;28;20825;-68
2022/01/19 01:53:27;;;;;;;15.57;9.63;;;6.70;99.60;;;;;;5073685;28;20396;-68
2022/01/19 01:56:02;;;;;;;17.20;9.70;;;6.70;99.60;;;;;;5073606;28;20469;-67
2022/01/19 01:58:33;;;;;;;14.90;10.60;;;6.70;99.80;;;;;;5073602;28;20439;-68
2022/01/19 02:01:00;;;;;;;15.23;10.43;;;6.70;99.90;;;;;;5073465;28;20465;-68
2022/01/19 02:03:29;;;;;;;12.27;10.13;;;6.70;99.90;;;;;;5073044;28;20930;-68
2022/01/19 02:08:45;;;;;;;17.30;9.40;;;6.70;99.90;;;;;;5073432;28;20409;-67
2022/01/19 02:15:45;;;;;;;10.67;8.20;;;6.70;99.90;;;;;;5073516;28;20794;-68
2022/01/19 02:22:53;;;;;;;12.10;10.90;;;6.40;99.90;;;;;;5073071;28;20424;-67
2022/01/19 02:25:26;;;;;;;16.23;10.90;;;6.40;99.90;;;;;;5073166;28;20472;-68
2022/01/19 02:41:39;;;;;;;13.07;11.67;;;6.00;99.90;;;;;;5073162;28;20534;-67
2022/01/19 02:44:08;;;;;;;12.90;11.03;;;6.00;99.90;;;;;;5073170;28;20464;-67
2022/01/19 02:46:54;;;;;;;14.20;12.77;;;6.00;99.90;;;;;;5073140;28;20420;-67
2022/01/19 02:49:21;;;;;;;12.87;11.57;;;6.10;99.90;;;;;;5073290;28;20421;-67
2022/01/19 02:51:52;;;;;;;16.47;13.97;;;6.00;99.90;;;;;;5073027;28;20466;-68
2022/01/19 02:54:21;;;;;;;18.77;13.30;;;6.00;99.90;;;;;;5073032;28;20461;-66
2022/01/19 02:56:51;;;;;;;15.50;13.30;;;6.00;99.90;;;;;;5073004;28;20444;-67
2022/01/19 02:59:23;;;;;;;16.60;14.10;;;6.00;99.90;;;;;;5072890;28;20451;-67
2022/01/19 03:10:05;;;;;;;18.90;13.00;;;6.00;99.90;;;;;;5072637;28;20416;-67
2022/01/19 03:12:33;;;;;;;18.20;14.47;;;5.90;99.90;;;;;;5072870;28;20435;-67
2022/01/19 03:14:59;;;;;;;16.20;12.20;;;5.90;99.90;;;;;;5075470;28;20472;-67
2022/01/19 03:17:26;;;;;;;14.30;12.50;;;5.80;99.90;;;;;;5076022;28;20810;-67
2022/01/19 03:19:53;;;;;;;19.77;13.53;;;5.80;99.90;;;;;;5076323;28;20491;-68
2022/01/19 03:22:27;;;;;;;15.60;13.17;;;5.80;99.90;;;;;;5076090;28;20944;-68
2022/01/19 03:24:54;;;;;;;18.43;12.63;;;5.80;99.90;;;;;;5076221;28;20463;-67
2022/01/19 03:27:21;;;;;;;17.73;13.10;;;5.80;99.90;;;;;;5076215;28;20441;-67
2022/01/19 03:29:48;;;;;;;17.80;13.30;;;5.90;99.90;;;;;;5076161;28;20441;-67
2022/01/19 03:32:14;;;;;;;16.10;12.90;;;5.90;99.90;;;;;;5076286;28;20431;-67
2022/01/19 03:34:41;;;;;;;13.73;10.50;;;5.90;99.90;;;;;;5075821;28;20467;-67
2022/01/19 03:37:11;;;;;;;21.57;13.67;;;6.00;99.90;;;;;;5076069;28;20445;-67
2022/01/19 03:39:39;;;;;;;17.70;12.00;;;6.00;99.90;;;;;;5075922;28;20476;-67
2022/01/19 03:42:06;;;;;;;17.13;11.90;;;6.00;99.90;;;;;;5075943;28;20445;-67
2022/01/19 03:44:33;;;;;;;17.20;12.00;;;6.00;99.90;;;;;;5075859;28;20492;-66
2022/01/19 03:47:02;;;;;;;17.87;12.17;;;6.10;99.90;;;;;;5075546;28;20440;-67
2022/01/19 03:49:33;;;;;;;15.40;11.60;;;6.20;99.90;;;;;;5075814;28;20432;-67
2022/01/19 03:52:02;;;;;;;16.50;12.87;;;6.20;99.90;;;;;;5075841;28;20467;-67
2022/01/19 03:54:30;;;;;;;16.80;11.90;;;6.30;99.90;;;;;;5075681;28;20469;-68
2022/01/19 03:56:58;;;;;;;16.97;11.27;;;6.30;99.90;;;;;;5075653;28;20441;-68
2022/01/19 03:59:25;;;;;;;16.40;10.33;;;6.30;99.90;;;;;;5075533;28;20444;-68
2022/01/19 04:01:53;;;;;;;15.87;10.80;;;6.30;99.90;;;;;;5075333;28;20961;-69
2022/01/19 04:04:33;;;;;;;16.23;11.03;;;6.40;99.90;;;;;;5075499;28;20555;-68
2022/01/19 04:07:08;;;;;;;16.23;10.40;;;6.40;99.90;;;;;;5075262;28;20543;-68
2022/01/19 04:09:36;;;;;;;12.10;9.70;;;6.50;99.90;;;;;;5075440;28;20436;-68
2022/01/19 04:12:06;;;;;;;13.00;9.67;;;6.50;99.90;;;;;;5075350;28;20464;-68
2022/01/19 04:14:32;;;;;;;14.20;9.40;;;6.50;99.90;;;;;;5074980;28;20472;-68
2022/01/19 04:17:02;;;;;;;11.97;8.87;;;6.50;99.90;;;;;;5075276;28;20451;-68
2022/01/19 04:19:32;;;;;;;12.10;8.47;;;6.60;99.90;;;;;;5074875;28;20946;-68
2022/01/19 04:22:02;;;;;;;10.97;8.97;;;6.60;99.90;;;;;;5075210;28;20445;-68
2022/01/19 04:24:29;;;;;;;12.47;9.47;;;6.60;99.90;;;;;;5075065;28;20475;-67
2022/01/19 04:29:44;;;;;;;12.13;9.87;;;6.60;99.90;;;;;;5074486;28;20810;-65
2022/01/19 04:32:15;;;;;;;11.97;8.67;;;6.50;99.90;;;;;;5074890;28;20428;-65
2022/01/19 04:34:43;;;;;;;10.53;9.20;;;6.50;99.90;;;;;;5074628;28;20868;-65
2022/01/19 04:37:29;;;;;;;12.37;8.60;;;6.60;99.90;;;;;;5074942;28;20494;-65
2022/01/19 04:54:52;;;;;;;16.43;10.73;;;6.20;99.90;;;;;;5074541;28;20436;-66
2022/01/19 05:03:09;;;;;;;13.20;10.20;;;6.30;99.90;;;;;;5074181;28;20406;-65
2022/01/19 05:05:46;;;;;;;15.60;11.10;;;6.30;99.90;;;;;;5074040;28;20546;-65
2022/01/19 05:08:20;;;;;;;12.33;11.00;;;6.40;99.90;;;;;;5073979;28;21001;-65
2022/01/19 05:13:36;;;;;;;15.40;11.30;;;6.40;99.90;;;;;;5074252;28;20404;-65
2022/01/19 05:16:03;;;;;;;20.00;13.37;;;6.50;99.90;;;;;;5074182;28;20428;-65
2022/01/19 05:18:30;;;;;;;15.00;11.03;;;6.50;99.90;;;;;;5074105;28;20444;-64
2022/01/19 05:20:58;;;;;;;19.13;11.00;;;6.50;99.90;;;;;;5073918;28;20485;-65
2022/01/19 05:23:25;;;;;;;14.57;11.30;;;6.50;99.90;;;;;;5074023;28;20447;-65
2022/01/19 05:25:52;;;;;;;12.67;10.37;;;6.50;99.90;;;;;;5073610;28;21015;-65
2022/01/19 05:28:19;;;;;;;21.10;11.07;;;6.50;99.90;;;;;;5073926;28;20447;-65
2022/01/19 05:30:46;;;;;;;14.40;10.03;;;6.60;99.90;;;;;;5073907;28;20448;-65
2022/01/19 05:33:12;;;;;;;14.73;11.17;;;6.50;99.90;;;;;;5073833;28;20457;-65
2022/01/19 05:35:39;;;;;;;13.87;10.33;;;6.50;99.90;;;;;;5073466;28;20946;-65
2022/01/19 05:38:07;;;;;;;14.93;11.27;;;6.50;99.90;;;;;;5073462;28;20527;-65
2022/01/19 05:40:34;;;;;;;16.00;9.97;;;6.60;99.90;;;;;;5073700;28;20480;-65
2022/01/19 05:43:01;;;;;;;15.00;10.50;;;6.60;99.90;;;;;;5073756;28;20445;-65
2022/01/19 05:45:28;;;;;;;12.20;10.50;;;6.60;99.90;;;;;;5074588;28;20475;-65
2022/01/19 05:47:55;;;;;;;14.07;9.57;;;6.60;99.90;;;;;;5073672;28;20441;-65
2022/01/19 05:50:22;;;;;;;15.87;10.60;;;6.70;99.90;;;;;;5073622;28;20463;-65
2022/01/19 05:52:49;;;;;;;13.63;10.77;;;6.70;99.90;;;;;;5073271;28;20449;-65
2022/01/19 05:55:17;;;;;;;14.97;10.73;;;6.70;99.90;;;;;;5073238;28;20993;-65
2022/01/19 05:57:44;;;;;;;15.30;11.70;;;6.70;99.90;;;;;;5073265;28;21008;-66
2022/01/19 06:00:12;;;;;;;13.50;10.73;;;6.70;99.90;;;;;;5073513;28;20490;-66
2022/01/19 06:02:39;;;;;;;13.30;10.60;;;6.70;99.90;;;;;;5073444;28;20502;-65
2022/01/19 06:05:06;;;;;;;15.00;10.87;;;6.60;99.90;;;;;;5073335;28;20468;-66
2022/01/19 06:07:41;;;;;;;15.13;11.20;;;6.60;99.90;;;;;;5073067;28;20954;-65
2022/01/19 06:10:10;;;;;;;12.07;10.40;;;6.60;99.90;;;;;;5073395;28;20889;-65
2022/01/19 06:12:39;;;;;;;13.60;11.57;;;6.50;99.90;;;;;;5073417;28;20451;-65
2022/01/19 06:15:07;;;;;;;13.30;10.93;;;6.50;99.90;;;;;;5073001;28;20983;-66
2022/01/19 06:17:34;;;;;;;15.13;10.00;;;6.50;99.90;;;;;;5073949;28;20445;-65
2022/01/19 06:20:01;;;;;;;17.13;11.70;;;6.40;99.90;;;;;;5073203;28;20440;-65
2022/01/19 06:22:28;;;;;;;13.57;10.50;;;6.40;99.90;;;;;;5073013;28;20441;-65
2022/01/19 06:24:56;;;;;;;13.20;10.20;;;6.40;99.90;;;;;;5073233;28;20471;-65
2022/01/19 06:27:23;;;;;;;13.83;12.33;;;6.40;99.90;;;;;;5073356;28;20461;-65
2022/01/19 06:29:51;;;;;;;15.30;13.37;;;6.50;99.90;;;;;;5073252;28;20449;-65
2022/01/19 06:32:18;;;;;;;13.20;11.80;;;6.40;99.90;;;;;;5072902;28;20930;-65
2022/01/19 06:34:45;;;;;;;16.47;13.20;;;6.50;99.90;;;;;;5073138;28;20473;-66
2022/01/19 06:37:12;;;;;;;12.27;10.40;;;6.40;99.90;;;;;;5073167;28;20452;-66
2022/01/19 06:39:39;;;;;;;20.77;13.93;;;6.40;99.90;;;;;;5073203;28;20847;-66
2022/01/19 06:42:06;;;;;;;15.10;12.57;;;6.40;99.90;;;;;;5073034;28;20487;-65
2022/01/19 06:44:33;;;;;;;17.30;12.80;;;6.40;99.90;;;;;;5073128;28;20468;-65
2022/01/19 06:47:01;;;;;;;16.00;12.00;;;6.50;99.90;;;;;;5073138;28;20475;-65
2022/01/19 06:49:28;;;;;;;16.90;12.30;;;6.50;99.90;;;;;;5074815;28;20452;-65
2022/01/19 06:51:55;;;;;;;15.20;13.03;;;6.50;99.90;;;;;;5076894;28;20809;-65
2022/01/19 06:54:21;;;;;;;17.50;12.40;;;6.50;99.90;;;;;;5076797;28;20464;-66
2022/01/19 06:56:48;;;;;;;16.07;13.40;;;6.60;99.90;;;;;;5076824;28;20444;-66
2022/01/19 06:59:15;;;;;;;17.00;13.57;;;6.60;99.90;;;;;;5076823;28;20440;-66
2022/01/19 07:01:41;;;;;;;17.53;12.10;;;6.60;99.90;;;;;;5076731;28;20823;-66
2022/01/19 07:04:11;;;;;;;16.03;12.80;;;6.60;99.90;;;;;;5076617;28;20460;-66
2022/01/19 07:06:38;;;;;;;14.50;13.00;;;6.60;99.90;;;;;;5076211;28;20510;-66
2022/01/19 07:09:04;;;;;;;16.57;12.70;;;6.70;99.90;;;;;;5076632;28;20448;-66
2022/01/19 07:11:31;;;;;;;13.03;11.70;;;6.70;99.90;;;;;;5076565;28;20444;-66
2022/01/19 07:13:58;;;;;;;15.53;12.60;;;6.70;99.90;;;;;;5076444;28;20467;-66
2022/01/19 07:16:25;;;;;;;18.70;11.33;;;6.80;99.90;;;;;;5076495;28;20833;-66
2022/01/19 07:18:52;;;;;;;14.37;11.10;;;6.70;99.90;;;;;;5076467;28;20836;-66
2022/01/19 07:21:20;;;;;;;13.87;12.47;;;6.80;99.90;;;;;;5075950;28;20828;-66
2022/01/19 07:23:47;;;;;;;13.53;12.13;;;6.80;99.90;;;;;;5076278;28;20437;-67
2022/01/19 07:26:14;;;;;;;17.73;12.50;;;6.80;99.90;;;;;;5076329;28;20456;-66
2022/01/19 07:28:41;;;;;;;17.13;12.67;;;6.80;99.90;;;;;;5076226;28;20506;-66
2022/01/19 07:31:07;;;;;;;13.67;11.43;;;6.70;99.90;;;;;;5076198;28;20429;-66
2022/01/19 07:33:34;;;;;;;16.13;12.73;;;6.70;99.90;;;;;;5076199;28;20501;-66
2022/01/19 07:36:01;;;;;;;12.23;10.97;;;6.70;99.90;;;;;;5076056;28;20461;-66
2022/01/19 07:38:29;;;;;;;14.33;12.83;;;6.60;99.90;;;;;;5076128;28;20432;-66
2022/01/19 07:40:56;;;;;;;13.00;11.67;;;6.60;99.90;;;;;;5075622;28;20476;-66
2022/01/19 07:43:23;;;;;;;13.20;11.90;;;6.60;99.90;;;;;;5075928;28;20474;-66
2022/01/19 07:45:50;;;;;;;17.40;12.70;;;6.60;99.90;;;;;;5075560;28;20502;-66
2022/01/19 07:48:17;;;;;;;14.83;13.33;;;6.60;99.90;;;;;;5075619;28;20921;-67
2022/01/19 07:50:44;;;;;;;13.40;11.60;;;6.60;99.90;;;;;;5075871;28;20448;-67
2022/01/19 07:53:11;;;;;;;15.17;13.23;;;6.60;99.90;;;;;;5075497;28;20949;-66
2022/01/19 07:55:39;;;;;;;15.47;13.60;;;6.70;99.90;;;;;;5075334;28;20465;-66
2022/01/19 07:58:06;;;;;;;16.10;12.70;;;6.60;99.90;;;;;;5075691;28;20476;-66
2022/01/19 08:00:35;;;;;;;13.60;12.13;;;6.70;99.90;;;;;;5075281;28;20440;-66
2022/01/19 08:03:01;;;;;;;16.30;12.33;;;6.70;99.90;;;;;;5075241;28;20539;-66
2022/01/19 08:05:28;;;;;;;14.97;12.40;;;6.80;99.90;;;;;;5075271;28;20464;-66
2022/01/19 08:07:55;;;;;;;15.13;13.53;;;6.80;99.90;;;;;;5075686;28;20433;-65
2022/01/19 08:10:22;;;;;;;13.57;10.87;;;6.80;99.90;;;;;;5075483;28;20472;-65
2022/01/19 08:12:52;;;;;;;15.07;12.80;;;6.80;99.90;;;;;;5075427;28;20447;-65
2022/01/19 08:15:18;;;;;;;16.23;11.77;;;6.80;99.90;;;;;;5074959;28;21004;-66
2022/01/19 08:17:45;;;;;;;13.90;12.50;;;6.90;99.90;;;;;;5075361;28;20428;-66
2022/01/19 08:20:13;;;;;;;17.50;13.27;;;6.90;99.90;;;;;;5076791;28;20499;-70
2022/01/19 08:22:39;;;;;;;14.13;12.40;;;6.90;99.90;;;;;;5074862;28;20460;-69
2022/01/19 08:25:07;;;;;;;16.50;11.83;;;6.90;99.90;;;;;;5074782;28;20983;-69
2022/01/19 08:27:33;;;;;;;13.77;11.07;;;6.90;99.90;;;;;;5074846;28;20429;-69
2022/01/19 08:30:01;;;;;;;15.37;12.50;;;6.90;99.90;;;;;;5075042;28;20440;-69
2022/01/19 08:32:28;;;;;;;14.87;12.50;;;6.80;99.90;;;;;;5075299;28;20441;-69
2022/01/19 08:34:55;;;;;;;13.63;12.20;;;6.80;99.90;;;;;;5075232;28;20464;-68
2022/01/19 08:37:22;;;;;;;15.23;13.70;;;6.90;99.90;;;;;;5074922;28;20444;-68
2022/01/19 08:39:48;;;;;;;21.50;13.40;;;6.90;99.90;;;;;;5075713;28;20455;-69
2022/01/19 08:42:15;;;;;;;13.80;11.50;;;6.90;99.90;;;;;;5074753;28;20487;-69
2022/01/19 08:44:42;;;;;;;17.37;13.17;;;6.90;99.90;;;;;;5074736;28;20543;-68
2022/01/19 08:47:10;;;;;;;16.53;13.43;;;6.90;99.90;;;;;;5074849;28;20436;-68
2022/01/19 08:49:37;;;;;;;16.63;12.67;;;6.90;99.90;;;;;;5074654;28;20447;-68
2022/01/19 08:52:04;;;;;;;18.13;12.33;;;6.90;99.90;;;;;;5074719;28;20444;-68
2022/01/19 08:54:32;;;;;;;14.47;11.57;;;6.90;99.90;;;;;;5074535;28;20467;-68
2022/01/19 08:57:01;;;;;;;12.10;10.80;;;6.90;99.90;;;;;;5074438;28;20449;-69
2022/01/19 08:59:28;;;;;;;16.17;12.20;;;6.90;99.90;;;;;;5074217;28;20433;-69
2022/01/19 09:01:55;;;;;;;15.13;12.67;;;6.90;99.90;;;;;;5074384;28;20503;-69
2022/01/19 09:04:23;;;;;;;15.00;12.97;;;7.00;99.90;;;;;;5074278;28;20481;-68
2022/01/19 09:06:50;;;;;;;13.87;12.53;;;7.00;99.70;;;;;;5074001;28;20457;-70
2022/01/19 09:09:17;;;;;;;12.70;11.40;;;7.00;99.50;;;;;;5074308;28;20428;-69
2022/01/19 09:11:44;;;;;;;16.30;12.70;;;7.10;99.80;;;;;;5073661;28;20436;-68
2022/01/19 09:14:12;;;;;;;16.87;12.07;;;7.10;99.90;;;;;;5074449;28;20453;-68
2022/01/19 09:16:39;;;;;;;15.77;11.73;;;7.10;99.90;;;;;;5074162;28;20444;-68
2022/01/19 09:19:07;;;;;;;15.07;12.50;;;7.20;99.80;;;;;;5074112;28;20440;-68
2022/01/19 09:21:36;;;;;;;16.07;13.10;;;7.20;99.40;;;;;;5073995;28;20465;-69
2022/01/19 09:24:02;;;;;;;13.07;11.70;;;7.20;99.40;;;;;;5073906;28;20465;-68
2022/01/19 09:26:30;;;;;;;15.70;12.97;;;7.30;99.50;;;;;;5074031;28;20425;-68
2022/01/19 09:28:57;;;;;;;13.73;12.13;;;7.30;99.30;;;;;;5074060;28;20498;-69
2022/01/19 09:31:24;;;;;;;13.50;12.10;;;7.30;99.20;;;;;;5073686;28;20436;-69
2022/01/19 09:33:56;;;;;;;17.97;12.47;;;7.40;99.10;;;;;;5073806;28;20456;-68
2022/01/19 09:36:32;;;;;;;15.17;13.57;;;7.40;99.00;;;;;;5073968;28;20439;-68
2022/01/19 09:39:00;;;;;;;15.27;12.90;;;7.40;98.90;;;;;;5073497;28;20429;-68
2022/01/19 09:41:28;;;;;;;16.87;14.50;;;7.40;98.90;;;;;;5073657;28;20491;-68
2022/01/19 09:43:55;;;;;;;17.13;12.70;;;7.40;98.90;;;;;;5073666;28;20474;-69
2022/01/19 09:46:23;;;;;;;16.33;13.10;;;7.40;98.90;;;;;;5073749;28;20439;-68
2022/01/19 09:48:50;;;;;;;14.43;12.67;;;7.40;98.60;;;;;;5073651;28;20449;-68
2022/01/19 09:51:18;;;;;;;14.53;13.10;;;7.40;98.60;;;;;;5073524;28;20789;-69
2022/01/19 09:53:47;;;;;;;15.60;10.70;;;7.40;98.80;;;;;;5073563;28;20455;-68
2022/01/19 09:56:19;;;;;;;18.33;13.60;;;7.40;99.20;;;;;;5073624;28;20475;-69
2022/01/19 09:58:45;;;;;;;14.67;12.10;;;7.40;99.00;;;;;;5073533;28;20435;-69
2022/01/19 10:01:18;;;;;;;14.57;13.03;;;7.40;98.90;;;;;;5073513;28;20436;-69
2022/01/19 10:03:45;;;;;;;15.57;13.40;;;7.40;98.90;;;;;;5073506;28;20425;-68
2022/01/19 10:06:14;;;;;;;13.50;12.23;;;7.40;98.50;;;;;;5073259;28;20456;-69
2022/01/19 10:08:43;;;;;;;22.60;14.13;;;7.30;98.70;;;;;;5073456;28;20451;-69
2022/01/19 10:11:18;;;;;;;13.90;11.80;;;7.40;99.00;;;;;;5073397;28;20452;-69
2022/01/19 10:19:23;;;;;;;16.13;13.43;;;7.40;98.40;;;;;;5073487;28;20419;-69
2022/01/19 10:22:05;;;;;;;15.93;14.23;;;7.40;98.40;;;;;;5072991;28;20997;-69
2022/01/19 10:24:38;;;;;;;16.67;13.17;;;7.50;98.10;;;;;;5077048;28;20471;-69
2022/01/19 10:27:27;;;;;;;14.23;12.83;;;7.50;98.20;;;;;;5077405;28;20491;-69
2022/01/19 10:29:56;;;;;;;18.53;14.67;;;7.50;98.10;;;;;;5077359;28;20452;-69
2022/01/19 10:32:25;;;;;;;15.57;13.97;;;7.50;98.10;;;;;;5077356;28;20421;-69
2022/01/19 10:34:52;;;;;;;14.67;13.17;;;7.50;98.10;;;;;;5076955;28;20999;-69
2022/01/19 10:37:25;;;;;;;15.20;13.70;;;7.60;98.30;;;;;;5077217;28;20539;-69
2022/01/19 10:39:54;;;;;;;17.43;15.57;;;7.60;98.60;;;;;;5077163;28;20447;-69
2022/01/19 10:42:23;;;;;;;15.30;13.70;;;7.70;97.80;;;;;;5077064;28;20479;-69
2022/01/19 10:44:53;;;;;;;14.37;12.87;;;7.70;97.40;;;;;;5077043;28;20487;-69
2022/01/19 10:47:38;;;;;;;16.33;14.40;;;7.70;97.60;;;;;;5077103;28;20789;-69
2022/01/19 10:50:06;;;;;;;15.27;13.77;;;7.60;97.50;;;;;;5077078;28;20425;-69
2022/01/19 10:52:36;;;;;;;15.83;14.13;;;7.60;97.40;;;;;;5076979;28;20448;-69
2022/01/19 10:55:06;;;;;;;14.90;13.40;;;7.60;97.40;;;;;;5076701;28;21040;-69
2022/01/19 10:57:35;;;;;;;20.50;14.70;;;7.60;97.70;;;;;;5076539;28;20906;-69
2022/01/19 11:00:19;;;;;;;16.77;14.57;;;7.60;97.70;;;;;;5076764;28;20444;-69
2022/01/19 11:02:47;;;;;;;15.43;13.70;;;7.60;97.90;;;;;;5076739;28;20464;-69
2022/01/19 11:05:14;;;;;;;18.23;14.43;;;7.60;97.50;;;;;;5076517;28;20467;-69
2022/01/19 11:07:42;;;;;;;16.73;13.93;;;7.60;97.40;;;;;;5076277;28;20956;-69
2022/01/19 11:10:12;;;;;;;14.77;13.20;;;7.60;97.20;;;;;;5076319;28;20455;-69
2022/01/19 11:12:45;;;;;;;14.03;11.93;;;7.50;97.10;;;;;;5076280;28;20977;-69
2022/01/19 11:15:14;;;;;;;15.40;13.87;;;7.50;97.40;;;;;;5076672;28;20554;-69
2022/01/19 11:17:42;;;;;;;16.07;14.67;;;7.50;97.60;;;;;;5076431;28;20453;-69
2022/01/19 11:20:11;;;;;;;15.13;13.60;;;7.50;97.70;;;;;;5076127;28;20792;-69
2022/01/19 11:23:06;;;;;;;14.77;13.27;;;7.60;97.90;;;;;;5076227;28;20476;-69
2022/01/19 11:25:46;;;;;;;19.97;16.07;;;7.60;98.00;;;;;;5076766;28;20480;-69
2022/01/19 11:28:28;;;;;;;14.93;13.40;;;7.60;97.50;;;;;;5077208;28;20428;-70
2022/01/19 11:30:55;;;;;;;15.20;13.60;;;7.60;97.40;;;;;;5076131;28;20436;-70
2022/01/19 11:33:25;;;;;;;17.13;13.73;;;7.60;97.50;;;;;;5076114;28;20445;-70
2022/01/19 11:35:54;;;;;;;21.00;16.17;;;7.50;97.30;;;;;;5075073;28;20491;-69
2022/01/19 11:38:31;;;;;;;19.40;15.80;;;7.50;97.40;;;;;;5076065;28;20534;-69
2022/01/19 11:40:58;;;;;;;19.83;16.30;;;7.50;97.80;;;;;;5076128;28;20483;-69
2022/01/19 11:43:29;;;;;;;18.10;15.20;;;7.50;98.00;;;;;;5075610;28;20989;-69
2022/01/19 11:45:56;;;;;;;19.25;17.15;;;7.50;98.20;;;;;;5074951;28;20442;-69
2022/01/19 11:48:26;;;;;;;17.77;15.97;;;7.50;98.60;;;;;;5075688;28;20207;-69
2022/01/19 11:50:54;;;;;;;18.57;16.40;;;7.50;98.60;;;;;;5076146;28;20844;-69
2022/01/19 11:53:22;;;;;;;17.60;15.77;;;7.50;97.80;;;;;;5075895;28;20468;-69
2022/01/19 11:56:04;;;;;;;15.93;14.30;;;7.50;97.80;;;;;;5075714;28;20460;-69
2022/01/19 11:58:31;;;;;;;17.37;14.93;;;7.50;97.70;;;;;;5075739;28;20439;-69
2022/01/19 12:00:58;;;;;;;20.63;16.07;;;7.40;97.90;;;;;;5075369;28;20453;-69
2022/01/19 12:03:31;;;;;;;17.60;14.80;;;7.40;98.10;;;;;;5075581;28;20488;-69
2022/01/19 12:05:58;;;;;;;19.40;16.73;;;7.30;98.30;;;;;;5075375;28;20499;-69
2022/01/19 12:08:30;;;;;;;16.80;15.17;;;7.20;98.40;;;;;;5075535;28;20445;-69
2022/01/19 12:10:59;;;;;;;16.87;14.97;;;7.20;98.70;;;;;;5075524;28;20777;-69
2022/01/19 12:13:37;;;;;;;18.97;15.83;;;7.10;98.90;;;;;;5075460;28;20447;-69
2022/01/19 12:16:09;;;;;;;18.70;16.50;;;7.10;99.10;;;;;;5075060;28;20982;-69
2022/01/19 12:18:47;;;;;;;17.63;15.83;;;7.10;99.00;;;;;;5075317;28;20429;-69
2022/01/19 12:21:15;;;;;;;18.07;16.10;;;7.00;99.20;;;;;;5075063;28;20921;-69
2022/01/19 12:23:44;;;;;;;20.90;17.40;;;6.90;98.90;;;;;;5075041;28;20481;-69
2022/01/19 12:26:13;;;;;;;20.10;15.83;;;6.80;99.20;;;;;;5075229;28;20448;-69
2022/01/19 12:28:42;;;;;;;20.93;17.87;;;6.70;99.80;;;;;;5075183;28;20453;-69
2022/01/19 12:31:30;;;;;;;20.30;16.67;;;6.70;99.80;;;;;;5074860;28;20451;-69
2022/01/19 12:34:20;;;;;;;20.17;17.00;;;6.50;99.70;;;;;;5070290;28;20445;-69
2022/01/19 12:36:50;;;;;;;21.23;16.60;;;6.50;99.90;;;;;;5075038;28;20538;-69
2022/01/19 12:39:39;;;;;;;21.60;17.47;;;6.40;99.90;;;;;;5074695;28;20430;-69
2022/01/19 12:42:13;;;;;;;19.60;16.80;;;6.30;99.90;;;;;;5074937;28;20435;-69
2022/01/19 12:44:46;;;;;;;26.93;16.30;;;6.40;99.90;;;;;;5074805;28;20860;-69
2022/01/19 12:47:46;;;;;;;20.30;16.53;;;6.30;99.90;;;;;;5073765;28;20779;-69
2022/01/19 12:50:37;;;;;;;24.23;16.83;;;6.40;99.90;;;;;;5074630;28;20473;-70
2022/01/19 12:53:12;;;;;;;23.93;16.30;;;6.40;99.90;;;;;;5074617;28;20445;-70
2022/01/19 12:55:42;;;;;;;22.17;17.17;;;6.50;99.90;;;;;;5074649;28;20464;-70
2022/01/19 12:58:13;;;;;;;24.50;17.77;;;6.50;99.90;;;;;;5074647;28;20440;-70
2022/01/19 13:00:41;;;;;;;20.97;18.00;;;6.50;99.90;;;;;;5074608;28;20448;-69
2022/01/19 13:03:20;;;;;;;21.23;17.20;;;6.60;99.90;;;;;;5074386;28;20489;-69
2022/01/19 13:05:56;;;;;;;20.93;18.10;;;6.60;99.90;;;;;;5074283;28;20475;-69
2022/01/19 13:08:26;;;;;;;19.97;15.93;;;6.70;99.90;;;;;;5074351;28;20513;-69
2022/01/19 13:11:00;;;;;;;18.30;16.03;;;6.70;99.90;;;;;;5074303;28;20433;-69
2022/01/19 13:13:28;;;;;;;20.90;16.50;;;6.70;99.90;;;;;;5074063;28;20794;-70
2022/01/19 13:15:57;;;;;;;22.27;16.87;;;6.60;99.90;;;;;;5074303;28;20465;-69
2022/01/19 13:18:34;;;;;;;21.33;18.10;;;6.70;99.90;;;;;;5074231;28;20451;-70
2022/01/19 13:21:05;;;;;;;21.90;17.50;;;6.70;99.90;;;;;;5074235;28;20434;-70
2022/01/19 13:23:34;;;;;;;21.90;17.50;;;6.70;99.90;;;;;;5074150;28;20467;-70
2022/01/19 13:26:03;;;;;;;20.40;17.07;;;6.60;99.90;;;;;;5074009;28;20519;-69
2022/01/19 13:28:32;;;;;;;22.20;18.40;;;6.70;99.90;;;;;;5074066;28;20453;-70
2022/01/19 13:31:10;;;;;;;19.43;16.33;;;6.60;99.90;;;;;;5073836;28;20532;-69
2022/01/19 13:33:37;;;;;;;19.80;16.57;;;6.60;99.90;;;;;;5073817;28;20887;-69
2022/01/19 13:36:06;;;;;;;21.93;16.73;;;6.60;99.90;;;;;;5074049;28;20447;-69
2022/01/19 13:38:33;;;;;;;20.40;17.63;;;6.50;99.90;;;;;;5074036;28;20459;-69
2022/01/19 13:41:05;;;;;;;21.47;17.70;;;6.40;99.90;;;;;;5074120;28;20449;-69
2022/01/19 13:43:36;;;;;;;23.53;19.63;;;6.40;99.90;;;;;;5073618;28;20483;-69
2022/01/19 13:46:13;;;;;;;27.67;18.23;;;6.30;99.90;;;;;;5073830;28;20468;-69
2022/01/19 13:48:41;;;;;;;24.47;19.13;;;6.20;99.90;;;;;;5074060;28;20445;-69
2022/01/19 13:51:10;;;;;;;22.97;18.83;;;6.10;99.90;;;;;;5074010;28;20447;-69
2022/01/19 13:53:39;;;;;;;22.50;17.70;;;6.10;99.90;;;;;;5073930;28;20494;-69
2022/01/19 13:56:09;;;;;;;21.43;16.40;;;6.20;99.90;;;;;;5073928;28;20444;-69
2022/01/19 13:58:39;;;;;;;26.53;20.87;;;6.20;99.90;;;;;;5073503;28;20825;-69